createdAt,value
2016-10-18T00:00:38.762Z,1015.94
2016-10-18T00:01:38.744Z,1015.9
2016-10-18T00:02:38.728Z,1015.92
2016-10-18T00:03:38.711Z,1015.88
2016-10-18T00:04:38.694Z,1015.88
2016-10-18T00:05:38.679Z,1015.85
2016-10-18T00:06:38.663Z,1015.86
2016-10-18T00:07:38.649Z,1015.89
2016-10-18T00:08:38.631Z,1015.83
2016-10-18T00:09:38.613Z,1015.9
2016-10-18T00:10:38.603Z,1015.89
2016-10-18T00:11:38.581Z,1015.87
2016-10-18T00:12:38.565Z,1015.9
2016-10-18T00:13:38.546Z,1015.93
2016-10-18T00:14:38.532Z,1015.87
2016-10-18T00:15:38.515Z,1015.92
2016-10-18T00:16:38.500Z,1015.9
2016-10-18T00:17:38.487Z,1015.86
2016-10-18T00:18:38.466Z,1015.86
2016-10-18T00:19:38.454Z,1015.86
2016-10-18T00:20:38.434Z,1015.84
2016-10-18T00:21:38.420Z,1015.86
2016-10-18T00:22:38.405Z,1015.85
2016-10-18T00:23:38.387Z,1015.85
2016-10-18T00:24:38.368Z,1015.84
2016-10-18T00:25:38.350Z,1015.86
2016-10-18T00:26:38.337Z,1015.85
2016-10-18T00:27:38.316Z,1015.84
2016-10-18T00:28:38.301Z,1015.85
2016-10-18T00:29:38.286Z,1015.84
2016-10-18T00:30:38.267Z,1015.84
2016-10-18T00:31:38.257Z,1015.87
2016-10-18T00:32:38.236Z,1015.9
2016-10-18T00:33:38.221Z,1015.95
2016-10-18T00:34:38.202Z,1015.94
2016-10-18T00:35:38.189Z,1015.93
2016-10-18T00:36:38.172Z,1015.97
2016-10-18T00:37:38.153Z,1015.94
2016-10-18T00:38:38.134Z,1015.94
2016-10-18T00:39:38.124Z,1015.92
2016-10-18T00:40:38.108Z,1015.98
2016-10-18T00:41:38.084Z,1015.95
2016-10-18T00:42:38.071Z,1016
2016-10-18T00:43:38.055Z,1015.97
2016-10-18T00:44:38.039Z,1016
2016-10-18T00:45:38.022Z,1016.04
2016-10-18T00:46:38.003Z,1016.01
2016-10-18T00:47:37.984Z,1016.04
2016-10-18T00:48:37.972Z,1016.03
2016-10-18T00:49:37.954Z,1016.05
2016-10-18T00:50:37.938Z,1016.03
2016-10-18T00:51:37.921Z,1016.04
2016-10-18T00:52:37.906Z,1016.06
2016-10-18T00:53:37.886Z,1016.03
2016-10-18T00:54:37.868Z,1016.02
2016-10-18T00:55:37.854Z,1015.98
2016-10-18T00:56:37.837Z,1015.97
2016-10-18T00:57:37.821Z,1015.95
2016-10-18T00:58:37.805Z,1015.98
2016-10-18T00:59:37.787Z,1015.99
2016-10-18T01:00:37.768Z,1015.95
2016-10-18T01:01:37.752Z,1015.99
2016-10-18T01:02:37.741Z,1016
2016-10-18T01:03:37.734Z,1015.98
2016-10-18T01:04:37.702Z,1016.03
2016-10-18T01:05:37.686Z,1016.05
2016-10-18T01:06:37.670Z,1016.01
2016-10-18T01:07:37.653Z,1015.99
2016-10-18T01:08:37.636Z,1016
2016-10-18T01:09:37.621Z,1015.98
2016-10-18T01:10:37.602Z,1016.01
2016-10-18T01:11:37.585Z,1015.99
2016-10-18T01:12:37.570Z,1015.97
2016-10-18T01:13:37.551Z,1016
2016-10-18T01:14:37.537Z,1016
2016-10-18T01:15:37.516Z,1015.96
2016-10-18T01:16:37.501Z,1015.96
2016-10-18T01:17:37.484Z,1015.97
2016-10-18T01:18:37.465Z,1015.94
2016-10-18T01:19:37.452Z,1015.96
2016-10-18T01:20:37.435Z,1015.91
2016-10-18T01:21:37.417Z,1015.94
2016-10-18T01:22:37.402Z,1015.89
2016-10-18T01:23:37.383Z,1015.91
2016-10-18T01:24:37.368Z,1015.9
2016-10-18T01:25:37.349Z,1015.85
2016-10-18T01:26:37.331Z,1015.86
2016-10-18T01:27:37.321Z,1015.88
2016-10-18T01:28:37.299Z,1015.86
2016-10-18T01:29:37.282Z,1015.85
2016-10-18T01:30:37.266Z,1015.84
2016-10-18T01:31:37.252Z,1015.86
2016-10-18T01:32:37.233Z,1015.84
2016-10-18T01:33:37.216Z,1015.85
2016-10-18T01:34:37.197Z,1015.86
2016-10-18T01:35:37.181Z,1015.89
2016-10-18T01:36:37.164Z,1015.86
2016-10-18T01:37:37.149Z,1015.85
2016-10-18T01:38:37.130Z,1015.82
2016-10-18T01:39:37.115Z,1015.85
2016-10-18T01:40:37.096Z,1015.81
2016-10-18T01:41:37.076Z,1015.82
2016-10-18T01:42:37.065Z,1015.81
2016-10-18T01:43:37.046Z,1015.81
2016-10-18T01:44:37.027Z,1015.78
2016-10-18T01:45:37.010Z,1015.78
2016-10-18T01:46:36.994Z,1015.79
2016-10-18T01:47:36.979Z,1015.82
2016-10-18T01:48:36.963Z,1015.82
2016-10-18T01:49:36.941Z,1015.82
2016-10-18T01:50:36.927Z,1015.85
2016-10-18T01:51:36.908Z,1015.82
2016-10-18T01:52:36.893Z,1015.79
2016-10-18T01:53:36.875Z,1015.76
2016-10-18T01:54:36.858Z,1015.77
2016-10-18T01:55:36.843Z,1015.72
2016-10-18T01:56:36.822Z,1015.74
2016-10-18T01:57:36.806Z,1015.76
2016-10-18T01:58:36.788Z,1015.74
2016-10-18T01:59:36.772Z,1015.7
2016-10-18T02:00:36.753Z,1015.72
2016-10-18T02:01:36.741Z,1015.77
2016-10-18T02:02:36.721Z,1015.72
2016-10-18T02:03:36.703Z,1015.72
2016-10-18T02:04:36.694Z,1015.71
2016-10-18T02:05:36.673Z,1015.69
2016-10-18T02:06:36.651Z,1015.68
2016-10-18T02:07:36.638Z,1015.66
2016-10-18T02:08:36.619Z,1015.69
2016-10-18T02:09:36.604Z,1015.71
2016-10-18T02:10:36.589Z,1015.66
2016-10-18T02:11:36.572Z,1015.67
2016-10-18T02:12:36.552Z,1015.64
2016-10-18T02:13:36.535Z,1015.64
2016-10-18T02:14:36.519Z,1015.63
2016-10-18T02:15:36.501Z,1015.66
2016-10-18T02:16:36.484Z,1015.62
2016-10-18T02:17:36.468Z,1015.65
2016-10-18T02:18:36.451Z,1015.69
2016-10-18T02:19:36.434Z,1015.66
2016-10-18T02:20:36.419Z,1015.68
2016-10-18T02:21:36.403Z,1015.65
2016-10-18T02:22:36.383Z,1015.65
2016-10-18T02:23:36.369Z,1015.71
2016-10-18T02:24:36.354Z,1015.69
2016-10-18T02:25:36.334Z,1015.68
2016-10-18T02:26:36.318Z,1015.65
2016-10-18T02:27:36.305Z,1015.64
2016-10-18T02:28:36.279Z,1015.59
2016-10-18T02:29:36.268Z,1015.58
2016-10-18T02:30:36.253Z,1015.6
2016-10-18T02:31:36.235Z,1015.59
2016-10-18T02:32:36.220Z,1015.61
2016-10-18T02:33:36.203Z,1015.56
2016-10-18T02:34:36.188Z,1015.61
2016-10-18T02:35:36.167Z,1015.56
2016-10-18T02:36:36.149Z,1015.52
2016-10-18T02:37:36.132Z,1015.54
2016-10-18T02:38:36.117Z,1015.51
2016-10-18T02:39:36.102Z,1015.51
2016-10-18T02:40:36.082Z,1015.55
2016-10-18T02:41:36.063Z,1015.52
2016-10-18T02:42:36.050Z,1015.48
2016-10-18T02:43:36.031Z,1015.48
2016-10-18T02:44:36.019Z,1015.5
2016-10-18T02:45:35.998Z,1015.53
2016-10-18T02:46:35.982Z,1015.53
2016-10-18T02:47:35.968Z,1015.5
2016-10-18T02:48:35.953Z,1015.53
2016-10-18T02:49:35.931Z,1015.53
2016-10-18T02:50:35.916Z,1015.54
2016-10-18T02:51:35.895Z,1015.55
2016-10-18T02:52:35.887Z,1015.49
2016-10-18T02:53:35.863Z,1015.51
2016-10-18T02:54:35.850Z,1015.53
2016-10-18T02:55:35.831Z,1015.51
2016-10-18T02:56:35.814Z,1015.49
2016-10-18T02:57:35.794Z,1015.5
2016-10-18T02:58:35.779Z,1015.5
2016-10-18T02:59:35.762Z,1015.49
2016-10-18T03:00:35.746Z,1015.48
2016-10-18T03:01:35.729Z,1015.49
2016-10-18T03:02:35.714Z,1015.47
2016-10-18T03:03:35.697Z,1015.47
2016-10-18T03:04:35.679Z,1015.45
2016-10-18T03:05:35.659Z,1015.44
2016-10-18T03:06:35.648Z,1015.44
2016-10-18T03:07:35.632Z,1015.42
2016-10-18T03:08:35.611Z,1015.41
2016-10-18T03:09:35.595Z,1015.44
2016-10-18T03:10:35.576Z,1015.43
2016-10-18T03:11:35.563Z,1015.41
2016-10-18T03:12:35.546Z,1015.43
2016-10-18T03:13:35.528Z,1015.4
2016-10-18T03:14:35.511Z,1015.37
2016-10-18T03:15:35.496Z,1015.4
2016-10-18T03:16:35.479Z,1015.41
2016-10-18T03:17:35.460Z,1015.38
2016-10-18T03:18:35.445Z,1015.39
2016-10-18T03:19:35.427Z,1015.35
2016-10-18T03:20:35.412Z,1015.33
2016-10-18T03:21:35.395Z,1015.35
2016-10-18T03:22:35.377Z,1015.29
2016-10-18T03:23:35.360Z,1015.35
2016-10-18T03:24:35.345Z,1015.32
2016-10-18T03:25:35.328Z,1015.31
2016-10-18T03:26:35.311Z,1015.31
2016-10-18T03:27:35.293Z,1015.35
2016-10-18T03:28:35.278Z,1015.35
2016-10-18T03:29:35.261Z,1015.31
2016-10-18T03:30:35.244Z,1015.3
2016-10-18T03:31:35.227Z,1015.34
2016-10-18T03:32:35.209Z,1015.35
2016-10-18T03:33:35.194Z,1015.33
2016-10-18T03:34:35.177Z,1015.3
2016-10-18T03:35:35.160Z,1015.3
2016-10-18T03:36:35.145Z,1015.26
2016-10-18T03:37:35.129Z,1015.32
2016-10-18T03:38:35.112Z,1015.27
2016-10-18T03:39:35.091Z,1015.3
2016-10-18T03:40:35.080Z,1015.21
2016-10-18T03:41:35.060Z,1015.24
2016-10-18T03:42:35.044Z,1015.24
2016-10-18T03:43:35.026Z,1015.27
2016-10-18T03:44:35.010Z,1015.24
2016-10-18T03:45:34.993Z,1015.24
2016-10-18T03:46:34.976Z,1015.23
2016-10-18T03:47:34.959Z,1015.24
2016-10-18T03:48:34.943Z,1015.23
2016-10-18T03:49:34.926Z,1015.26
2016-10-18T03:50:34.911Z,1015.24
2016-10-18T03:51:34.894Z,1015.21
2016-10-18T03:52:34.875Z,1015.21
2016-10-18T03:53:34.878Z,1015.21
2016-10-18T03:54:34.846Z,1015.22
2016-10-18T03:55:34.827Z,1015.17
2016-10-18T03:56:34.809Z,1015.16
2016-10-18T03:57:34.794Z,1015.12
2016-10-18T03:58:34.775Z,1015.12
2016-10-18T03:59:34.759Z,1015.15
2016-10-18T04:00:34.742Z,1015.13
2016-10-18T04:01:34.727Z,1015.13
2016-10-18T04:02:34.714Z,1015.16
2016-10-18T04:03:34.695Z,1015.12
2016-10-18T04:04:34.673Z,1015.1
2016-10-18T04:05:34.658Z,1015.12
2016-10-18T04:06:34.641Z,1015.12
2016-10-18T04:07:34.627Z,1015.16
2016-10-18T04:08:34.608Z,1015.19
2016-10-18T04:09:34.591Z,1015.13
2016-10-18T04:10:34.577Z,1015.13
2016-10-18T04:11:34.558Z,1015.12
2016-10-18T04:12:34.543Z,1015.1
2016-10-18T04:13:34.525Z,1015.17
2016-10-18T04:14:34.511Z,1015.17
2016-10-18T04:15:34.491Z,1015.16
2016-10-18T04:16:34.476Z,1015.19
2016-10-18T04:17:34.460Z,1015.1
2016-10-18T04:18:34.441Z,1015.09
2016-10-18T04:19:34.424Z,1015.07
2016-10-18T04:20:34.408Z,1015.06
2016-10-18T04:21:34.392Z,1015.05
2016-10-18T04:22:34.374Z,1015
2016-10-18T04:23:34.359Z,1015.03
2016-10-18T04:24:34.342Z,1015.01
2016-10-18T04:25:34.325Z,1014.97
2016-10-18T04:26:34.310Z,1014.94
2016-10-18T04:27:34.292Z,1014.95
2016-10-18T04:28:34.274Z,1014.99
2016-10-18T04:29:34.260Z,1014.95
2016-10-18T04:30:34.243Z,1014.96
2016-10-18T04:31:34.227Z,1014.96
2016-10-18T04:32:34.208Z,1014.98
2016-10-18T04:33:34.195Z,1014.96
2016-10-18T04:34:34.180Z,1014.96
2016-10-18T04:35:34.160Z,1015
2016-10-18T04:36:34.142Z,1014.97
2016-10-18T04:37:34.124Z,1014.94
2016-10-18T04:38:34.111Z,1014.94
2016-10-18T04:39:34.092Z,1014.95
2016-10-18T04:40:34.076Z,1014.95
2016-10-18T04:41:34.061Z,1014.92
2016-10-18T04:42:34.042Z,1014.9
2016-10-18T04:43:34.027Z,1014.89
2016-10-18T04:44:34.013Z,1014.85
2016-10-18T04:45:33.992Z,1014.89
2016-10-18T04:46:33.979Z,1014.91
2016-10-18T04:47:33.962Z,1014.94
2016-10-18T04:48:33.944Z,1014.92
2016-10-18T04:49:33.931Z,1014.98
2016-10-18T04:50:33.916Z,1014.96
2016-10-18T04:51:33.897Z,1014.97
2016-10-18T04:52:33.879Z,1014.98
2016-10-18T04:53:33.864Z,1014.94
2016-10-18T04:54:33.846Z,1014.96
2016-10-18T04:55:33.829Z,1014.93
2016-10-18T04:56:33.813Z,1014.88
2016-10-18T04:57:33.796Z,1014.91
2016-10-18T04:58:33.778Z,1014.85
2016-10-18T04:59:33.768Z,1014.83
2016-10-18T05:00:33.746Z,1014.83
2016-10-18T05:01:33.732Z,1014.86
2016-10-18T05:02:33.714Z,1014.84
2016-10-18T05:03:33.698Z,1014.88
2016-10-18T05:04:33.682Z,1014.85
2016-10-18T05:05:33.663Z,1014.85
2016-10-18T05:06:33.647Z,1014.88
2016-10-18T05:07:33.629Z,1014.83
2016-10-18T05:08:33.615Z,1014.86
2016-10-18T05:09:33.597Z,1014.87
2016-10-18T05:10:33.579Z,1014.94
2016-10-18T05:11:33.564Z,1014.92
2016-10-18T05:12:33.549Z,1014.88
2016-10-18T05:13:33.531Z,1014.84
2016-10-18T05:14:33.514Z,1014.82
2016-10-18T05:15:33.499Z,1014.83
2016-10-18T05:16:33.482Z,1014.83
2016-10-18T05:17:33.467Z,1014.83
2016-10-18T05:18:33.448Z,1014.88
2016-10-18T05:19:33.434Z,1014.85
2016-10-18T05:20:33.417Z,1014.85
2016-10-18T05:21:33.399Z,1014.8
2016-10-18T05:22:33.384Z,1014.82
2016-10-18T05:23:33.368Z,1014.83
2016-10-18T05:24:33.349Z,1014.83
2016-10-18T05:25:33.334Z,1014.84
2016-10-18T05:26:33.319Z,1014.83
2016-10-18T05:27:33.303Z,1014.86
2016-10-18T05:28:33.288Z,1014.8
2016-10-18T05:29:33.269Z,1014.77
2016-10-18T05:30:33.252Z,1014.81
2016-10-18T05:31:33.236Z,1014.84
2016-10-18T05:32:33.221Z,1014.83
2016-10-18T05:33:33.204Z,1014.84
2016-10-18T05:34:33.192Z,1014.84
2016-10-18T05:35:33.170Z,1014.87
2016-10-18T05:36:33.157Z,1014.88
2016-10-18T05:37:33.141Z,1014.88
2016-10-18T05:38:33.128Z,1014.87
2016-10-18T05:39:33.115Z,1014.84
2016-10-18T05:40:33.089Z,1014.82
2016-10-18T05:41:33.076Z,1014.81
2016-10-18T05:42:33.057Z,1014.83
2016-10-18T05:43:33.044Z,1014.83
2016-10-18T05:44:33.026Z,1014.81
2016-10-18T05:45:33.014Z,1014.8
2016-10-18T05:46:32.992Z,1014.81
2016-10-18T05:47:32.977Z,1014.8
2016-10-18T05:48:32.962Z,1014.81
2016-10-18T05:49:32.943Z,1014.77
2016-10-18T05:50:32.928Z,1014.77
2016-10-18T05:51:32.914Z,1014.79
2016-10-18T05:52:32.897Z,1014.75
2016-10-18T05:53:32.879Z,1014.75
2016-10-18T05:54:32.864Z,1014.78
2016-10-18T05:55:32.847Z,1014.77
2016-10-18T05:56:32.833Z,1014.77
2016-10-18T05:57:32.814Z,1014.77
2016-10-18T05:58:32.803Z,1014.78
2016-10-18T05:59:32.784Z,1014.75
2016-10-18T06:00:32.765Z,1014.8
2016-10-18T06:01:32.748Z,1014.85
2016-10-18T06:02:32.739Z,1014.86
2016-10-18T06:03:32.719Z,1014.85
2016-10-18T06:04:32.702Z,1014.84
2016-10-18T06:05:32.685Z,1014.86
2016-10-18T06:06:32.670Z,1014.87
2016-10-18T06:07:32.653Z,1014.83
2016-10-18T06:08:32.638Z,1014.85
2016-10-18T06:09:32.623Z,1014.83
2016-10-18T06:10:32.603Z,1014.83
2016-10-18T06:11:32.591Z,1014.82
2016-10-18T06:12:32.573Z,1014.82
2016-10-18T06:13:32.557Z,1014.85
2016-10-18T06:14:32.542Z,1014.82
2016-10-18T06:15:32.525Z,1014.84
2016-10-18T06:16:32.509Z,1014.83
2016-10-18T06:17:32.493Z,1014.87
2016-10-18T06:18:32.477Z,1014.81
2016-10-18T06:19:32.474Z,1014.8
2016-10-18T06:20:32.445Z,1014.87
2016-10-18T06:21:32.428Z,1014.92
2016-10-18T06:22:32.422Z,1014.9
2016-10-18T06:23:32.395Z,1014.93
2016-10-18T06:24:32.380Z,1014.89
2016-10-18T06:25:32.363Z,1014.9
2016-10-18T06:26:32.348Z,1014.93
2016-10-18T06:27:32.329Z,1014.91
2016-10-18T06:28:32.315Z,1014.92
2016-10-18T06:29:32.298Z,1014.9
2016-10-18T06:30:32.284Z,1014.84
2016-10-18T06:31:32.266Z,1014.89
2016-10-18T06:32:32.251Z,1014.85
2016-10-18T06:33:32.236Z,1014.82
2016-10-18T06:34:32.218Z,1014.84
2016-10-18T06:35:32.207Z,1014.83
2016-10-18T06:36:32.188Z,1014.82
2016-10-18T06:37:32.170Z,1014.81
2016-10-18T06:38:32.156Z,1014.8
2016-10-18T06:39:32.142Z,1014.84
2016-10-18T06:40:32.151Z,1014.83
2016-10-18T06:41:32.104Z,1014.81
2016-10-18T06:42:32.090Z,1014.83
2016-10-18T06:43:32.073Z,1014.84
2016-10-18T06:44:32.058Z,1014.83
2016-10-18T06:45:32.041Z,1014.88
2016-10-18T06:46:32.027Z,1014.84
2016-10-18T06:47:32.009Z,1014.9
2016-10-18T06:48:31.993Z,1014.89
2016-10-18T06:49:31.977Z,1014.88
2016-10-18T06:50:31.959Z,1014.84
2016-10-18T06:51:31.944Z,1014.84
2016-10-18T06:52:31.925Z,1014.87
2016-10-18T06:53:31.914Z,1014.83
2016-10-18T06:54:31.896Z,1014.84
2016-10-18T06:55:31.879Z,1014.82
2016-10-18T06:56:31.862Z,1014.79
2016-10-18T06:57:31.847Z,1014.84
2016-10-18T06:58:31.831Z,1014.87
2016-10-18T06:59:31.810Z,1014.87
2016-10-18T07:00:31.797Z,1014.83
2016-10-18T07:01:31.784Z,1014.92
2016-10-18T07:02:31.763Z,1014.88
2016-10-18T07:03:31.748Z,1014.85
2016-10-18T07:04:31.730Z,1014.87
2016-10-18T07:05:31.717Z,1014.85
2016-10-18T07:06:31.699Z,1014.89
2016-10-18T07:07:31.683Z,1014.87
2016-10-18T07:08:31.669Z,1014.87
2016-10-18T07:09:31.650Z,1014.87
2016-10-18T07:10:31.635Z,1014.9
2016-10-18T07:11:31.617Z,1014.87
2016-10-18T07:12:31.639Z,1014.85
2016-10-18T07:13:31.585Z,1014.9
2016-10-18T07:14:31.566Z,1014.9
2016-10-18T07:15:31.552Z,1014.86
2016-10-18T07:16:31.540Z,1014.9
2016-10-18T07:17:31.518Z,1014.9
2016-10-18T07:18:31.503Z,1014.93
2016-10-18T07:19:31.487Z,1014.91
2016-10-18T07:20:31.470Z,1014.93
2016-10-18T07:21:31.457Z,1014.88
2016-10-18T07:22:31.440Z,1014.91
2016-10-18T07:23:31.423Z,1014.89
2016-10-18T07:24:31.403Z,1014.88
2016-10-18T07:25:31.389Z,1014.89
2016-10-18T07:26:31.373Z,1014.93
2016-10-18T07:27:31.359Z,1014.89
2016-10-18T07:28:31.341Z,1014.91
2016-10-18T07:29:31.324Z,1014.86
2016-10-18T07:30:31.309Z,1014.84
2016-10-18T07:31:31.292Z,1014.82
2016-10-18T07:32:31.275Z,1014.86
2016-10-18T07:33:31.259Z,1014.87
2016-10-18T07:34:31.244Z,1014.8
2016-10-18T07:35:31.227Z,1014.84
2016-10-18T07:36:31.212Z,1014.83
2016-10-18T07:37:31.193Z,1014.85
2016-10-18T07:38:31.184Z,1014.86
2016-10-18T07:39:31.164Z,1014.86
2016-10-18T07:40:31.147Z,1014.82
2016-10-18T07:41:31.131Z,1014.87
2016-10-18T07:42:31.115Z,1014.89
2016-10-18T07:43:31.099Z,1014.83
2016-10-18T07:44:31.080Z,1014.93
2016-10-18T07:45:31.068Z,1014.87
2016-10-18T07:46:31.050Z,1014.89
2016-10-18T07:47:31.035Z,1014.91
2016-10-18T07:48:31.019Z,1014.9
2016-10-18T07:49:31.002Z,1014.86
2016-10-18T07:50:30.985Z,1014.91
2016-10-18T07:51:30.970Z,1014.91
2016-10-18T07:52:30.955Z,1014.87
2016-10-18T07:53:30.937Z,1014.92
2016-10-18T07:54:30.922Z,1014.94
2016-10-18T07:55:30.907Z,1014.95
2016-10-18T07:56:30.894Z,1014.85
2016-10-18T07:57:30.874Z,1014.82
2016-10-18T07:58:30.860Z,1014.84
2016-10-18T07:59:30.842Z,1014.83
2016-10-18T08:00:30.831Z,1014.78
2016-10-18T08:01:30.811Z,1014.93
2016-10-18T08:02:30.801Z,1014.84
2016-10-18T08:03:30.782Z,1014.84
2016-10-18T08:04:30.762Z,1014.83
2016-10-18T08:05:30.747Z,1014.8
2016-10-18T08:06:30.728Z,1014.81
2016-10-18T08:07:30.715Z,1014.8
2016-10-18T08:08:30.697Z,1014.78
2016-10-18T08:09:30.682Z,1014.81
2016-10-18T08:10:30.667Z,1014.78
2016-10-18T08:11:30.650Z,1014.77
2016-10-18T08:12:30.634Z,1014.8
2016-10-18T08:13:30.625Z,1014.8
2016-10-18T08:14:30.602Z,1014.83
2016-10-18T08:15:30.587Z,1014.78
2016-10-18T08:16:30.568Z,1014.82
2016-10-18T08:17:30.557Z,1014.74
2016-10-18T08:18:30.538Z,1014.73
2016-10-18T08:19:30.535Z,1014.75
2016-10-18T08:20:30.503Z,1014.74
2016-10-18T08:21:30.491Z,1014.72
2016-10-18T08:22:30.480Z,1014.73
2016-10-18T08:23:30.464Z,1014.72
2016-10-18T08:24:30.450Z,1014.71
2016-10-18T08:25:30.449Z,1014.72
2016-10-18T08:26:30.407Z,1014.72
2016-10-18T08:27:30.395Z,1014.75
2016-10-18T08:28:30.380Z,1014.74
2016-10-18T08:29:30.362Z,1014.67
2016-10-18T08:30:30.345Z,1014.74
2016-10-18T08:31:30.330Z,1014.69
2016-10-18T08:32:30.315Z,1014.68
2016-10-18T08:33:30.299Z,1014.71
2016-10-18T08:34:30.282Z,1014.74
2016-10-18T08:35:30.266Z,1014.69
2016-10-18T08:36:30.250Z,1014.66
2016-10-18T08:37:30.233Z,1014.63
2016-10-18T08:38:30.216Z,1014.66
2016-10-18T08:39:30.204Z,1014.68
2016-10-18T08:40:30.187Z,1014.66
2016-10-18T08:41:30.168Z,1014.66
2016-10-18T08:42:30.151Z,1014.66
2016-10-18T08:43:30.138Z,1014.67
2016-10-18T08:44:30.118Z,1014.66
2016-10-18T08:45:30.107Z,1014.6
2016-10-18T08:46:30.090Z,1014.63
2016-10-18T08:47:30.073Z,1014.58
2016-10-18T08:48:30.057Z,1014.55
2016-10-18T08:49:30.040Z,1014.59
2016-10-18T08:50:30.025Z,1014.6
2016-10-18T08:51:30.008Z,1014.62
2016-10-18T08:52:29.989Z,1014.68
2016-10-18T08:53:29.976Z,1014.65
2016-10-18T08:54:29.960Z,1014.7
2016-10-18T08:55:29.944Z,1014.66
2016-10-18T08:56:29.926Z,1014.66
2016-10-18T08:57:29.910Z,1014.7
2016-10-18T08:58:29.899Z,1014.67
2016-10-18T08:59:29.877Z,1014.65
2016-10-18T09:00:29.865Z,1014.65
2016-10-18T09:01:29.846Z,1014.62
2016-10-18T09:02:29.828Z,1014.67
2016-10-18T09:03:29.812Z,1014.68
2016-10-18T09:04:29.798Z,1014.69
2016-10-18T09:05:29.783Z,1014.72
2016-10-18T09:06:29.768Z,1014.64
2016-10-18T09:07:29.753Z,1014.67
2016-10-18T09:08:29.735Z,1014.64
2016-10-18T09:09:29.721Z,1014.69
2016-10-18T09:10:29.701Z,1014.67
2016-10-18T09:11:29.686Z,1014.67
2016-10-18T09:12:29.670Z,1014.7
2016-10-18T09:13:29.656Z,1014.6
2016-10-18T09:14:29.640Z,1014.67
2016-10-18T09:15:29.623Z,1014.68
2016-10-18T09:16:29.608Z,1014.68
2016-10-18T09:17:29.591Z,1014.72
2016-10-18T09:18:29.576Z,1014.67
2016-10-18T09:19:29.560Z,1014.7
2016-10-18T09:20:29.547Z,1014.7
2016-10-18T09:21:29.526Z,1014.71
2016-10-18T09:22:29.511Z,1014.7
2016-10-18T09:23:29.499Z,1014.65
2016-10-18T09:24:29.482Z,1014.66
2016-10-18T09:25:29.464Z,1014.62
2016-10-18T09:26:29.448Z,1014.63
2016-10-18T09:27:29.432Z,1014.6
2016-10-18T09:28:29.416Z,1014.59
2016-10-18T09:29:29.403Z,1014.62
2016-10-18T09:30:29.382Z,1014.6
2016-10-18T09:31:29.369Z,1014.57
2016-10-18T09:32:29.352Z,1014.57
2016-10-18T09:33:29.337Z,1014.53
2016-10-18T09:34:29.321Z,1014.58
2016-10-18T09:35:29.320Z,1014.56
2016-10-18T09:36:29.289Z,1014.51
2016-10-18T09:37:29.273Z,1014.56
2016-10-18T09:38:29.257Z,1014.53
2016-10-18T09:39:29.244Z,1014.54
2016-10-18T09:40:29.224Z,1014.56
2016-10-18T09:41:29.209Z,1014.54
2016-10-18T09:42:29.194Z,1014.56
2016-10-18T09:43:29.179Z,1014.5
2016-10-18T09:44:29.161Z,1014.53
2016-10-18T09:45:29.146Z,1014.54
2016-10-18T09:46:29.132Z,1014.51
2016-10-18T09:47:29.114Z,1014.5
2016-10-18T09:48:29.100Z,1014.45
2016-10-18T09:49:29.084Z,1014.44
2016-10-18T09:50:29.069Z,1014.47
2016-10-18T09:51:29.051Z,1014.44
2016-10-18T09:52:29.036Z,1014.4
2016-10-18T09:53:29.021Z,1014.42
2016-10-18T09:54:29.005Z,1014.41
2016-10-18T09:55:28.990Z,1014.42
2016-10-18T09:56:28.974Z,1014.38
2016-10-18T09:57:28.957Z,1014.4
2016-10-18T09:58:28.942Z,1014.37
2016-10-18T09:59:28.922Z,1014.35
2016-10-18T10:00:28.909Z,1014.39
2016-10-18T10:01:28.890Z,1014.34
2016-10-18T10:02:28.877Z,1014.32
2016-10-18T10:03:28.860Z,1014.28
2016-10-18T10:04:28.846Z,1014.29
2016-10-18T10:05:28.827Z,1014.33
2016-10-18T10:06:28.818Z,1014.27
2016-10-18T10:07:28.801Z,1014.25
2016-10-18T10:08:28.782Z,1014.25
2016-10-18T10:09:28.765Z,1014.27
2016-10-18T10:10:28.751Z,1014.24
2016-10-18T10:11:28.734Z,1014.24
2016-10-18T10:12:28.720Z,1014.3
2016-10-18T10:13:28.708Z,1014.31
2016-10-18T10:14:28.686Z,1014.23
2016-10-18T10:15:28.672Z,1014.2
2016-10-18T10:16:28.655Z,1014.2
2016-10-18T10:17:28.639Z,1014.19
2016-10-18T10:18:28.625Z,1014.2
2016-10-18T10:19:28.609Z,1014.22
2016-10-18T10:20:28.593Z,1014.19
2016-10-18T10:21:28.579Z,1014.17
2016-10-18T10:22:28.566Z,1014.2
2016-10-18T10:23:28.545Z,1014.18
2016-10-18T10:24:28.533Z,1014.17
2016-10-18T10:25:28.518Z,1014.14
2016-10-18T10:26:28.505Z,1014.19
2016-10-18T10:27:28.482Z,1014.15
2016-10-18T10:28:28.467Z,1014.11
2016-10-18T10:29:28.452Z,1014.16
2016-10-18T10:30:28.439Z,1014.09
2016-10-18T10:31:28.421Z,1014.1
2016-10-18T10:32:28.402Z,1014.11
2016-10-18T10:33:28.387Z,1014.06
2016-10-18T10:34:28.376Z,1014.04
2016-10-18T10:35:28.355Z,1014.06
2016-10-18T10:36:28.341Z,1014.04
2016-10-18T10:37:28.327Z,1014.02
2016-10-18T10:38:28.307Z,1014.02
2016-10-18T10:39:28.296Z,1014.03
2016-10-18T10:40:28.279Z,1013.99
2016-10-18T10:41:28.266Z,1013.94
2016-10-18T10:42:28.246Z,1013.92
2016-10-18T10:43:28.233Z,1013.9
2016-10-18T10:44:28.216Z,1013.9
2016-10-18T10:45:28.199Z,1013.92
2016-10-18T10:46:28.184Z,1013.86
2016-10-18T10:47:28.168Z,1013.86
2016-10-18T10:48:28.153Z,1013.83
2016-10-18T10:49:28.136Z,1013.83
2016-10-18T10:50:28.122Z,1013.78
2016-10-18T10:51:28.106Z,1013.77
2016-10-18T10:52:28.087Z,1013.77
2016-10-18T10:53:28.072Z,1013.75
2016-10-18T10:54:28.058Z,1013.75
2016-10-18T10:55:28.043Z,1013.71
2016-10-18T10:56:28.026Z,1013.67
2016-10-18T10:57:28.009Z,1013.65
2016-10-18T10:58:27.998Z,1013.71
2016-10-18T10:59:27.981Z,1013.67
2016-10-18T11:00:27.963Z,1013.65
2016-10-18T11:01:27.948Z,1013.69
2016-10-18T11:02:27.937Z,1013.73
2016-10-18T11:03:27.914Z,1013.7
2016-10-18T11:04:27.900Z,1013.7
2016-10-18T11:05:27.885Z,1013.73
2016-10-18T11:06:27.867Z,1013.72
2016-10-18T11:07:27.852Z,1013.69
2016-10-18T11:08:27.835Z,1013.7
2016-10-18T11:09:27.823Z,1013.71
2016-10-18T11:10:27.804Z,1013.69
2016-10-18T11:11:27.794Z,1013.68
2016-10-18T11:12:27.773Z,1013.62
2016-10-18T11:13:27.757Z,1013.66
2016-10-18T11:14:27.741Z,1013.74
2016-10-18T11:15:27.725Z,1013.59
2016-10-18T11:16:27.708Z,1013.62
2016-10-18T11:17:27.693Z,1013.58
2016-10-18T11:18:27.675Z,1013.61
2016-10-18T11:19:27.658Z,1013.59
2016-10-18T11:20:27.643Z,1013.6
2016-10-18T11:21:27.629Z,1013.55
2016-10-18T11:22:27.610Z,1013.57
2016-10-18T11:23:27.597Z,1013.57
2016-10-18T11:24:27.581Z,1013.57
2016-10-18T11:25:27.564Z,1013.53
2016-10-18T11:26:27.548Z,1013.55
2016-10-18T11:27:27.534Z,1013.47
2016-10-18T11:28:27.517Z,1013.43
2016-10-18T11:29:27.501Z,1013.39
2016-10-18T11:30:27.485Z,1013.4
2016-10-18T11:31:27.468Z,1013.42
2016-10-18T11:32:27.453Z,1013.37
2016-10-18T11:33:27.436Z,1013.39
2016-10-18T11:34:27.425Z,1013.36
2016-10-18T11:35:27.403Z,1013.4
2016-10-18T11:36:27.388Z,1013.37
2016-10-18T11:37:27.373Z,1013.31
2016-10-18T11:38:27.356Z,1013.32
2016-10-18T11:39:27.342Z,1013.28
2016-10-18T11:40:27.335Z,1013.28
2016-10-18T11:41:27.310Z,1013.31
2016-10-18T11:42:27.293Z,1013.37
2016-10-18T11:43:27.276Z,1013.27
2016-10-18T11:44:27.262Z,1013.25
2016-10-18T11:45:27.254Z,1013.27
2016-10-18T11:46:27.230Z,1013.24
2016-10-18T11:47:27.214Z,1013.23
2016-10-18T11:48:27.195Z,1013.19
2016-10-18T11:49:27.376Z,1013.21
2016-10-18T11:50:27.173Z,1013.21
2016-10-18T11:51:27.148Z,1013.17
2016-10-18T11:52:27.145Z,1013.22
2016-10-18T11:53:27.123Z,1013.16
2016-10-18T11:54:27.104Z,1013.13
2016-10-18T11:55:27.087Z,1013.1
2016-10-18T11:56:27.072Z,1013.11
2016-10-18T11:57:27.056Z,1013.13
2016-10-18T11:58:27.038Z,1013.13
2016-10-18T11:59:27.024Z,1013.08
2016-10-18T12:00:27.009Z,1013.08
2016-10-18T12:01:26.993Z,1013.07
2016-10-18T12:02:26.976Z,1013.06
2016-10-18T12:03:26.961Z,1013.01
2016-10-18T12:04:26.949Z,1013
2016-10-18T12:05:26.927Z,1013.03
2016-10-18T12:06:26.913Z,1012.96
2016-10-18T12:07:26.896Z,1013.05
2016-10-18T12:08:26.881Z,1013.01